臺北飛航情報區 - 海峽席

SPECI RCTP 270105Z 01008KT 3500 RA SCT003 BKN005 BKN008 15/14 Q1016 NOSIG RMK A3003=

站台狀態:Online
最後更新:2021-02-27 09:00:02